createdAt,value
2022-11-24T00:01:35.893Z,7.70
2022-11-24T00:06:36.436Z,7.70
2022-11-24T00:11:37.668Z,7.70
2022-11-24T00:16:37.692Z,8.00
2022-11-24T00:21:36.994Z,8.10
2022-11-24T00:26:38.451Z,7.70
2022-11-24T00:31:38.260Z,7.80
2022-11-24T00:36:37.705Z,8.10
2022-11-24T00:41:37.245Z,7.90
2022-11-24T00:46:36.010Z,8.10
2022-11-24T00:51:34.409Z,7.90
2022-11-24T00:56:32.609Z,7.90
2022-11-24T01:01:32.871Z,8.20
2022-11-24T01:06:32.608Z,8.00
2022-11-24T01:11:54.269Z,8.00
2022-11-24T01:16:54.288Z,8.00
2022-11-24T01:21:52.580Z,8.00
2022-11-24T01:26:50.795Z,8.00
2022-11-24T01:31:49.096Z,8.00
2022-11-24T01:36:48.739Z,8.40
2022-11-24T01:41:47.461Z,8.00
2022-11-24T01:46:49.085Z,8.10
2022-11-24T01:51:53.057Z,8.00
2022-11-24T01:56:55.210Z,8.10
2022-11-24T02:01:54.500Z,8.10
2022-11-24T02:13:26.735Z,8.10
2022-11-24T02:18:24.965Z,8.10
2022-11-24T02:23:29.393Z,8.10
2022-11-24T02:28:31.220Z,8.10
2022-11-24T02:33:30.085Z,8.20
2022-11-24T02:38:32.385Z,8.20
2022-11-24T02:43:36.318Z,8.10
2022-11-24T02:55:23.574Z,8.10
2022-11-24T03:00:23.527Z,8.40
2022-11-24T03:05:21.714Z,8.20
2022-11-24T03:10:19.968Z,8.10
2022-11-24T03:15:18.200Z,8.00
2022-11-24T03:20:18.888Z,8.00
2022-11-24T03:25:17.202Z,8.00
2022-11-24T03:30:15.580Z,7.90
2022-11-24T03:35:13.960Z,7.90
2022-11-24T03:40:14.464Z,8.10
2022-11-24T03:50:31.096Z,7.90
2022-11-24T03:55:30.669Z,7.90
2022-11-24T04:00:29.203Z,7.90
2022-11-24T04:05:27.529Z,7.80
2022-11-24T04:10:25.987Z,7.80
2022-11-24T04:15:25.657Z,7.80
2022-11-24T04:20:24.244Z,7.90
2022-11-24T04:25:22.477Z,7.90
2022-11-24T04:30:23.367Z,7.90
2022-11-24T04:35:22.958Z,7.90
2022-11-24T04:40:21.521Z,8.30
2022-11-24T04:45:19.772Z,7.90
2022-11-24T04:50:18.401Z,8.00
2022-11-24T04:55:18.170Z,8.00
2022-11-24T05:00:16.926Z,8.00
2022-11-24T05:05:15.298Z,8.10
2022-11-24T05:10:30.702Z,8.10
2022-11-24T05:15:30.358Z,8.10
2022-11-24T05:20:28.600Z,8.10
2022-11-24T05:25:26.872Z,8.10
2022-11-24T05:30:25.034Z,8.20
2022-11-24T05:35:25.483Z,8.20
2022-11-24T05:40:23.707Z,8.20
2022-11-24T05:45:23.478Z,8.20
2022-11-24T05:50:24.203Z,8.20
2022-11-24T05:55:22.440Z,8.20
2022-11-24T06:00:20.813Z,8.30
2022-11-24T06:05:19.125Z,8.30
2022-11-24T06:10:19.537Z,8.30
2022-11-24T06:15:18.533Z,8.30
2022-11-24T06:20:17.043Z,8.30
2022-11-24T06:25:16.196Z,8.30
2022-11-24T06:30:16.711Z,8.40
2022-11-24T06:35:15.327Z,8.40
2022-11-24T06:40:13.977Z,8.30
2022-11-24T06:45:12.490Z,8.40
2022-11-24T06:50:12.527Z,8.40
2022-11-24T06:55:10.947Z,8.40
2022-11-24T07:00:10.716Z,8.40
2022-11-24T07:05:09.438Z,8.40
2022-11-24T07:10:09.877Z,8.40
2022-11-24T07:15:09.564Z,8.30
2022-11-24T07:20:09.724Z,8.40
2022-11-24T07:25:10.361Z,8.40
2022-11-24T07:30:09.778Z,8.40
2022-11-24T07:35:08.626Z,8.40
2022-11-24T07:40:09.775Z,8.40
2022-11-24T07:45:09.100Z,8.40
2022-11-24T07:50:09.594Z,8.40
2022-11-24T07:55:10.732Z,8.40
2022-11-24T08:00:13.141Z,8.40
2022-11-24T08:05:11.319Z,8.40
2022-11-24T08:10:11.432Z,8.40
2022-11-24T08:15:11.398Z,8.40
2022-11-24T08:20:11.321Z,8.40
2022-11-24T08:25:14.356Z,8.40
2022-11-24T08:30:13.975Z,8.50
2022-11-24T08:35:14.637Z,8.50
2022-11-24T08:40:15.285Z,8.60
2022-11-24T08:45:20.824Z,8.60
2022-11-24T08:50:19.852Z,8.70
2022-11-24T08:55:19.507Z,8.70
2022-11-24T09:00:22.985Z,8.80
2022-11-24T09:05:50.080Z,8.90
2022-11-24T09:10:40.834Z,8.90
2022-11-24T09:15:39.104Z,9.00
2022-11-24T09:20:37.300Z,9.00
2022-11-24T09:25:35.536Z,9.10
2022-11-24T09:30:35.214Z,9.10
2022-11-24T09:35:33.455Z,9.10
2022-11-24T09:40:31.848Z,9.20
2022-11-24T09:51:05.548Z,9.40
2022-11-24T09:56:13.271Z,9.40
2022-11-24T10:01:18.088Z,9.50
2022-11-24T10:06:27.629Z,9.50
2022-11-24T10:11:36.009Z,9.60
2022-11-24T10:16:51.362Z,9.70
2022-11-24T10:22:02.121Z,9.70
2022-11-24T10:27:04.970Z,9.80
2022-11-24T10:32:07.880Z,9.80
2022-11-24T10:37:13.791Z,9.80
2022-11-24T10:42:16.895Z,9.90
2022-11-24T10:47:20.619Z,10.00
2022-11-24T10:52:20.221Z,10.00
2022-11-24T10:57:29.090Z,10.00
2022-11-24T11:02:39.846Z,10.10
2022-11-24T11:07:38.160Z,10.10
2022-11-24T11:12:43.905Z,10.10
2022-11-24T11:24:40.258Z,10.20
2022-11-24T11:34:58.261Z,10.30
2022-11-24T11:39:59.411Z,10.30
2022-11-24T11:45:03.747Z,10.40
2022-11-24T11:50:01.966Z,10.40
2022-11-24T11:55:28.216Z,10.50
2022-11-24T12:00:26.775Z,10.60
2022-11-24T12:05:32.669Z,10.60
2022-11-24T12:10:37.926Z,10.60
2022-11-24T12:15:40.719Z,10.70
2022-11-24T12:20:52.335Z,10.80
2022-11-24T12:25:58.857Z,10.80
2022-11-24T12:31:05.752Z,10.80
2022-11-24T12:36:14.878Z,10.90
2022-11-24T12:41:47.267Z,10.90
2022-11-24T12:46:55.283Z,11.00
2022-11-24T12:52:00.948Z,11.00
2022-11-24T12:57:08.629Z,11.00
2022-11-24T13:02:17.222Z,11.10
2022-11-24T13:07:19.161Z,11.10
2022-11-24T13:12:18.744Z,11.10
2022-11-24T13:17:36.375Z,11.20
2022-11-24T13:22:47.305Z,11.30
2022-11-24T13:27:49.535Z,11.30
2022-11-24T13:39:21.882Z,11.30
2022-11-24T13:44:26.400Z,11.30
2022-11-24T13:49:24.912Z,11.40
2022-11-24T13:54:25.295Z,11.40
2022-11-24T13:59:33.883Z,11.40
2022-11-24T14:04:33.416Z,11.40
2022-11-24T14:09:36.531Z,11.30
2022-11-24T14:14:36.345Z,11.40
2022-11-24T14:19:34.771Z,11.40
2022-11-24T14:24:39.733Z,11.40
2022-11-24T14:29:54.428Z,11.40
2022-11-24T14:34:54.171Z,11.40
2022-11-24T14:39:52.430Z,11.40
2022-11-24T14:44:55.677Z,11.30
2022-11-24T14:50:27.726Z,11.30
2022-11-24T14:56:30.817Z,11.40
2022-11-24T15:01:36.115Z,11.30
2022-11-24T15:06:34.563Z,11.30
2022-11-24T15:11:33.592Z,11.30
2022-11-24T15:16:33.208Z,11.30
2022-11-24T15:21:33.315Z,11.20
2022-11-24T15:26:38.303Z,11.20
2022-11-24T15:32:02.663Z,11.30
2022-11-24T15:37:00.843Z,11.20
2022-11-24T15:41:59.455Z,11.20
2022-11-24T15:46:57.688Z,11.20
2022-11-24T15:51:57.302Z,11.20
2022-11-24T15:56:55.485Z,11.20
2022-11-24T16:01:53.723Z,11.10
2022-11-24T16:06:51.870Z,11.10
2022-11-24T16:11:51.392Z,11.10
2022-11-24T16:16:49.720Z,11.00
2022-11-24T16:21:49.053Z,11.00
2022-11-24T16:26:47.308Z,10.90
2022-11-24T16:31:47.272Z,10.90
2022-11-24T16:36:45.555Z,10.80
2022-11-24T16:41:43.723Z,10.80
2022-11-24T16:46:41.933Z,10.80
2022-11-24T16:51:42.618Z,10.60
2022-11-24T16:56:41.095Z,10.60
2022-11-24T17:01:40.301Z,10.50
2022-11-24T17:06:38.544Z,10.50
2022-11-24T17:11:38.109Z,10.40
2022-11-24T17:16:38.343Z,10.30
2022-11-24T17:21:36.783Z,10.30
2022-11-24T17:26:35.287Z,10.20
2022-11-24T17:31:36.246Z,10.10
2022-11-24T17:36:36.278Z,10.00
2022-11-24T17:41:34.784Z,10.00
2022-11-24T17:46:34.469Z,10.00
2022-11-24T17:51:32.634Z,10.00
2022-11-24T17:56:31.238Z,9.90
2022-11-24T18:01:31.417Z,9.80
2022-11-24T18:12:54.860Z,9.70
2022-11-24T18:18:17.888Z,9.60
2022-11-24T18:23:16.035Z,9.60
2022-11-24T18:28:40.338Z,9.60
2022-11-24T18:47:17.898Z,9.50
2022-11-24T18:52:16.178Z,9.40
2022-11-24T18:57:14.414Z,9.40
2022-11-24T19:02:12.980Z,9.40
2022-11-24T19:07:12.603Z,9.30
2022-11-24T19:12:10.950Z,9.30
2022-11-24T19:17:09.210Z,9.30
2022-11-24T19:22:07.449Z,9.30
2022-11-24T19:27:07.490Z,9.20
2022-11-24T19:49:02.181Z,9.20
2022-11-24T19:54:04.465Z,9.50
2022-11-24T19:59:20.721Z,9.50
2022-11-24T20:05:17.735Z,9.30
2022-11-24T20:17:06.767Z,9.30
2022-11-24T20:22:05.708Z,9.30
2022-11-24T20:27:03.943Z,9.30
2022-11-24T20:32:02.224Z,9.40
2022-11-24T20:37:01.900Z,9.40
2022-11-24T20:42:00.111Z,9.40
2022-11-24T20:47:00.373Z,9.30
2022-11-24T20:51:58.724Z,9.30
2022-11-24T20:56:58.617Z,9.30
2022-11-24T21:01:59.139Z,9.30
2022-11-24T21:06:57.619Z,9.30
2022-11-24T21:11:57.240Z,9.30
2022-11-24T21:16:55.485Z,9.20
2022-11-24T21:21:54.101Z,9.20
2022-11-24T21:26:52.803Z,9.20
2022-11-24T21:31:53.667Z,9.20
2022-11-24T21:36:51.839Z,9.10
2022-11-24T21:41:50.022Z,9.10
2022-11-24T21:46:54.324Z,9.10
2022-11-24T21:51:56.363Z,9.00
2022-11-24T21:56:55.487Z,9.20
2022-11-24T22:01:53.879Z,9.00
2022-11-24T22:07:07.995Z,9.00
2022-11-24T22:12:06.648Z,9.00
2022-11-24T22:17:04.882Z,9.00
2022-11-24T22:22:02.989Z,9.00
2022-11-24T22:27:02.940Z,9.00
2022-11-24T22:32:01.410Z,8.90
2022-11-24T22:36:59.572Z,8.90
2022-11-24T22:42:02.634Z,8.90
2022-11-24T22:47:01.036Z,8.90
2022-11-24T22:51:59.186Z,8.90
2022-11-24T22:56:57.368Z,8.80
2022-11-24T23:01:56.862Z,9.00
2022-11-24T23:06:55.087Z,8.80
2022-11-24T23:11:53.255Z,8.80
2022-11-24T23:16:52.132Z,8.80
2022-11-24T23:21:51.676Z,8.70
2022-11-24T23:26:49.829Z,8.70
2022-11-24T23:32:56.987Z,8.80
2022-11-24T23:38:11.576Z,8.70
2022-11-24T23:43:09.777Z,8.60
2022-11-24T23:48:08.982Z,8.60
2022-11-24T23:53:08.722Z,8.60
2022-11-24T23:58:07.158Z,8.60
